Time;durP1;ratioP1;P1;durP2;ratioP2;P2;SDS_P1;SDS_P2;PMS_P1;PMS_P2;Temp;Humidity;BMP_temperature;BMP_pressure;BME280_temperature;BME280_humidity;BME280_pressure;Samples;Min_cycle;Max_cycle;Signal;HPM_P1;HPM_P2
2022/03/08 00:03:31;;;;;;;32.50;15.43;;;1.00;99.90;;;;;;10194456;29;20217;-79
2022/03/08 00:08:53;;;;;;;31.13;16.33;;;0.90;99.90;;;;;;10210306;29;20225;-79
2022/03/08 00:14:17;;;;;;;33.37;16.07;;;0.80;99.90;;;;;;10209673;29;20198;-80
2022/03/08 00:19:40;;;;;;;34.07;15.30;;;0.80;99.90;;;;;;10209894;29;20496;-79
2022/03/08 00:25:03;;;;;;;31.77;13.67;;;0.80;99.90;;;;;;10194791;29;20248;-80
2022/03/08 00:30:27;;;;;;;30.00;12.57;;;0.80;99.90;;;;;;10215535;29;20241;-81
2022/03/08 00:35:50;;;;;;;21.23;10.03;;;0.70;99.90;;;;;;10217189;29;20205;-81
2022/03/08 00:41:12;;;;;;;18.07;9.77;;;0.70;99.90;;;;;;10214974;29;20203;-79
2022/03/08 00:46:36;;;;;;;17.27;9.13;;;0.60;99.90;;;;;;10216145;29;20268;-81
2022/03/08 00:51:59;;;;;;;19.27;9.33;;;0.60;99.90;;;;;;10201169;29;20221;-80
2022/03/08 00:57:21;;;;;;;24.60;9.90;;;0.60;99.90;;;;;;10200917;29;20232;-77
2022/03/08 01:02:43;;;;;;;19.23;9.87;;;0.70;99.90;;;;;;10201470;29;20201;-80
2022/03/08 01:08:06;;;;;;;17.53;7.97;;;0.80;99.90;;;;;;10211181;29;20451;-80
2022/03/08 01:13:28;;;;;;;11.83;7.93;;;0.90;99.90;;;;;;10200891;29;20531;-80
2022/03/08 01:18:50;;;;;;;23.90;10.00;;;0.90;99.90;;;;;;10199997;29;20281;-80
2022/03/08 01:24:13;;;;;;;50.77;21.90;;;1.00;99.90;;;;;;10213423;29;20246;-80
2022/03/08 01:29:37;;;;;;;60.37;23.20;;;1.00;99.90;;;;;;10199664;29;20228;-79
2022/03/08 01:34:59;;;;;;;97.93;37.03;;;1.00;99.90;;;;;;10200459;29;20254;-79
2022/03/08 01:40:21;;;;;;;91.17;33.67;;;0.90;99.90;;;;;;10200361;29;20254;-78
2022/03/08 01:45:43;;;;;;;65.40;25.83;;;0.80;99.90;;;;;;10212319;29;20280;-80
2022/03/08 01:51:06;;;;;;;31.60;13.97;;;0.90;99.90;;;;;;10199831;29;20203;-79
2022/03/08 01:56:29;;;;;;;26.47;11.67;;;0.90;99.90;;;;;;10199447;29;20272;-77
2022/03/08 02:01:52;;;;;;;41.87;16.13;;;0.90;99.90;;;;;;10199282;29;20201;-78
2022/03/08 02:07:14;;;;;;;33.30;15.07;;;0.80;99.90;;;;;;10197661;29;20247;-79
2022/03/08 02:12:37;;;;;;;32.67;16.27;;;0.70;99.90;;;;;;10184336;29;20201;-79
2022/03/08 02:18:00;;;;;;;21.80;11.10;;;0.70;99.90;;;;;;10197719;29;20197;-78
2022/03/08 02:23:22;;;;;;;19.00;9.53;;;0.70;99.90;;;;;;10184055;29;20247;-79
2022/03/08 02:28:45;;;;;;;28.03;13.17;;;0.70;99.90;;;;;;10209700;29;20500;-78
2022/03/08 02:34:07;;;;;;;22.27;10.50;;;0.70;99.90;;;;;;10171502;29;20374;-80
2022/03/08 02:39:29;;;;;;;15.90;7.67;;;0.60;99.90;;;;;;10173496;29;20203;-80
2022/03/08 02:44:51;;;;;;;16.27;7.17;;;0.60;99.90;;;;;;10177060;29;20232;-79
2022/03/08 02:50:15;;;;;;;15.03;6.50;;;0.60;99.90;;;;;;10211893;29;20198;-78
2022/03/08 02:55:37;;;;;;;15.60;7.77;;;0.60;99.90;;;;;;10196347;29;20197;-80
2022/03/08 03:01:00;;;;;;;18.73;9.30;;;0.40;99.90;;;;;;10197307;29;20249;-80
2022/03/08 03:06:22;;;;;;;22.33;9.77;;;0.30;99.90;;;;;;10211267;29;20288;-76
2022/03/08 03:11:44;;;;;;;19.77;9.47;;;0.20;99.90;;;;;;10196776;29;20235;-79
2022/03/08 03:17:06;;;;;;;22.27;8.43;;;0.10;99.90;;;;;;10196755;29;20252;-79
2022/03/08 03:22:28;;;;;;;18.93;8.80;;;0.10;99.90;;;;;;10196763;29;20249;-79
2022/03/08 03:27:50;;;;;;;21.63;10.00;;;0.10;99.90;;;;;;10208553;29;20240;-79
2022/03/08 03:33:13;;;;;;;18.33;9.07;;;0.00;99.90;;;;;;10194671;29;20196;-77
2022/03/08 03:38:35;;;;;;;23.37;10.30;;;0.00;99.90;;;;;;10211161;29;20201;-79
2022/03/08 03:43:58;;;;;;;17.93;8.93;;;0.00;99.90;;;;;;10196009;29;20586;-79
2022/03/08 03:49:20;;;;;;;17.90;8.30;;;-0.10;99.90;;;;;;10196359;29;20249;-76
2022/03/08 03:54:41;;;;;;;15.33;7.63;;;-0.20;99.90;;;;;;10210449;29;20209;-79
2022/03/08 04:00:05;;;;;;;18.10;9.00;;;-0.10;99.90;;;;;;10195539;29;20551;-79
2022/03/08 04:05:33;;;;;;;10.80;6.77;;;-0.30;99.90;;;;;;10218274;29;20247;-79
2022/03/08 04:10:55;;;;;;;13.40;6.80;;;-0.30;99.90;;;;;;10203255;29;20196;-77
2022/03/08 04:16:17;;;;;;;8.27;4.93;;;-0.30;99.90;;;;;;10205238;29;20225;-78
2022/03/08 04:21:40;;;;;;;9.67;6.70;;;-0.40;99.90;;;;;;10207960;29;20193;-79
2022/03/08 04:27:04;;;;;;;12.30;7.30;;;-0.40;99.90;;;;;;10201787;29;20574;-78
2022/03/08 04:32:26;;;;;;;9.63;6.93;;;-0.50;99.90;;;;;;10202255;29;20199;-78
2022/03/08 04:37:49;;;;;;;16.00;9.60;;;-0.60;99.90;;;;;;10217067;29;20404;-77
2022/03/08 04:43:11;;;;;;;22.67;13.40;;;-0.70;99.90;;;;;;10202350;29;20199;-80
2022/03/08 04:48:35;;;;;;;21.00;12.40;;;-0.70;99.90;;;;;;10201279;29;20200;-79
2022/03/08 04:53:57;;;;;;;18.30;9.73;;;-0.70;99.90;;;;;;10216438;29;20196;-81
2022/03/08 04:59:19;;;;;;;16.67;10.13;;;-0.70;99.90;;;;;;10202012;29;20287;-78
2022/03/08 05:04:41;;;;;;;12.07;8.50;;;-0.70;99.90;;;;;;10215777;29;20229;-80
2022/03/08 05:10:07;;;;;;;11.17;7.73;;;-0.70;99.90;;;;;;10187840;29;20515;-78
2022/03/08 05:15:29;;;;;;;13.33;7.73;;;-0.80;99.90;;;;;;10161913;29;20208;-80
2022/03/08 05:20:52;;;;;;;12.13;8.50;;;-0.70;99.90;;;;;;10161859;29;20201;-80
2022/03/08 05:26:14;;;;;;;12.07;7.40;;;-0.70;99.90;;;;;;10181620;29;20245;-79
2022/03/08 05:31:37;;;;;;;9.37;6.10;;;-0.60;99.90;;;;;;10217304;29;20193;-81
2022/03/08 05:36:59;;;;;;;8.67;5.83;;;-0.60;99.90;;;;;;10200208;29;20231;-81
2022/03/08 05:42:21;;;;;;;11.73;7.03;;;-0.60;99.90;;;;;;10199148;29;20240;-80
2022/03/08 05:47:43;;;;;;;27.60;14.37;;;-0.70;99.90;;;;;;10214583;29;20408;-80
2022/03/08 05:53:05;;;;;;;48.93;22.00;;;-0.60;99.90;;;;;;10214348;29;20200;-81
2022/03/08 05:58:27;;;;;;;72.40;33.87;;;-0.60;99.90;;;;;;10214131;29;20204;-81
2022/03/08 06:03:48;;;;;;;112.90;54.03;;;-0.50;99.90;;;;;;10198567;29;20214;-81
2022/03/08 06:09:11;;;;;;;78.80;41.27;;;-0.50;99.90;;;;;;10198840;29;20507;-81
2022/03/08 06:14:33;;;;;;;85.13;42.23;;;-0.40;99.90;;;;;;10199209;29;20212;-77
2022/03/08 06:19:55;;;;;;;73.47;37.30;;;-0.30;99.90;;;;;;10199412;29;20428;-81
2022/03/08 06:25:18;;;;;;;87.30;39.43;;;-0.20;99.90;;;;;;10224082;28;20257;-77
2022/03/08 06:30:40;;;;;;;76.70;35.47;;;0.00;99.90;;;;;;10215497;29;20243;-81
2022/03/08 06:36:02;;;;;;;76.07;35.53;;;0.20;99.90;;;;;;10198524;29;20201;-81
2022/03/08 06:41:26;;;;;;;116.17;52.77;;;0.30;99.90;;;;;;10198000;29;20198;-81
2022/03/08 06:46:48;;;;;;;117.73;61.57;;;0.60;99.90;;;;;;10196744;29;20300;-80
2022/03/08 06:52:10;;;;;;;123.50;64.03;;;0.90;99.90;;;;;;10197054;29;20197;-78
2022/03/08 06:57:33;;;;;;;72.37;41.43;;;1.50;99.90;;;;;;10208974;29;20274;-80
2022/03/08 07:12:47;;;;;;;51.67;26.00;;;6.40;99.90;;;;;;10598135;27;20552;-79
2022/03/08 07:18:10;;;;;;;35.25;19.30;;;7.60;99.90;;;;;;10596303;28;20203;-77
2022/03/08 07:23:32;;;;;;;19.23;11.10;;;9.20;99.90;;;;;;10597225;28;20200;-79
2022/03/08 07:28:55;;;;;;;11.57;6.00;;;10.30;99.50;;;;;;10590332;28;20529;-79
2022/03/08 07:34:17;;;;;;;11.18;6.80;;;11.10;97.00;;;;;;10598405;28;20199;-78
2022/03/08 07:39:40;;;;;;;11.50;6.28;;;11.60;91.80;;;;;;10595937;28;20201;-81
2022/03/08 07:45:03;;;;;;;9.32;5.60;;;12.20;89.60;;;;;;10596750;28;20511;-80
2022/03/08 07:50:25;;;;;;;8.85;5.25;;;12.60;84.20;;;;;;10596544;28;20247;-80
2022/03/08 07:55:49;;;;;;;7.85;4.80;;;13.20;75.20;;;;;;10596421;28;20197;-80
2022/03/08 08:01:14;;;;;;;7.03;3.90;;;13.50;59.70;;;;;;10596206;28;20213;-82
2022/03/08 08:06:36;;;;;;;5.60;3.70;;;13.70;56.10;;;;;;10562095;27;21429;-81
2022/03/08 08:11:59;;;;;;;8.02;6.15;;;14.20;50.90;;;;;;10464497;28;20262;-79
2022/03/08 08:17:23;;;;;;;10.02;4.82;;;14.80;45.90;;;;;;10441089;28;20276;-80
2022/03/08 08:22:46;;;;;;;8.55;4.43;;;15.30;41.00;;;;;;10424889;28;20578;-80
2022/03/08 08:28:08;;;;;;;6.97;4.57;;;15.30;41.80;;;;;;10430460;28;20209;-80
2022/03/08 08:33:30;;;;;;;10.40;6.18;;;16.00;37.50;;;;;;10433967;28;20200;-81
2022/03/08 08:38:53;;;;;;;8.70;5.45;;;16.60;35.30;;;;;;10435949;28;20479;-81
2022/03/08 08:44:19;;;;;;;5.70;3.15;;;16.90;33.80;;;;;;10435430;28;20204;-78
2022/03/08 08:49:41;;;;;;;16.52;6.72;;;17.00;31.30;;;;;;10409895;28;20220;-80
2022/03/08 08:55:04;;;;;;;16.20;6.13;;;16.90;30.80;;;;;;10433513;28;20200;-80
2022/03/08 09:00:30;;;;;;;6.60;5.00;;;17.10;30.70;;;;;;10433791;28;20270;-79
2022/03/08 09:05:52;;;;;;;8.82;6.03;;;17.50;29.50;;;;;;10435073;28;20545;-80
2022/03/08 09:11:15;;;;;;;8.00;3.13;;;18.10;28.80;;;;;;10431138;28;20246;-80
2022/03/08 09:16:37;;;;;;;5.50;2.83;;;18.00;27.80;;;;;;10419917;28;20212;-82
2022/03/08 09:22:00;;;;;;;4.82;2.88;;;18.10;27.50;;;;;;10432984;28;20196;-78
2022/03/08 09:27:23;;;;;;;3.60;2.13;;;18.00;26.60;;;;;;10435405;28;20219;-86
2022/03/08 09:32:45;;;;;;;4.40;2.42;;;16.20;27.10;;;;;;10417771;28;20255;-80
2022/03/08 09:38:07;;;;;;;4.53;2.40;;;14.40;31.80;;;;;;10432949;28;20207;-79
2022/03/08 09:43:30;;;;;;;4.90;2.00;;;14.50;34.20;;;;;;10433121;28;20238;-78
2022/03/08 09:48:53;;;;;;;7.55;2.78;;;15.80;30.40;;;;;;10432540;28;20745;-77
2022/03/08 09:54:15;;;;;;;3.47;1.73;;;17.10;28.00;;;;;;10432062;28;20261;-78
2022/03/08 09:59:37;;;;;;;30.58;14.77;;;17.60;27.00;;;;;;10432893;28;20200;-80
2022/03/08 10:05:05;;;;;;;2.53;1.30;;;18.10;25.70;;;;;;10428146;28;20193;-79
2022/03/08 10:16:23;;;;;;;5.72;1.10;;;18.90;23.50;;;;;;10592699;27;20541;-77
2022/03/08 10:21:51;;;;;;;3.05;1.63;;;19.00;23.10;;;;;;10576987;28;20194;-89
2022/03/08 10:27:16;;;;;;;3.55;1.75;;;19.40;22.60;;;;;;10563352;28;20194;-82
2022/03/08 10:32:39;;;;;;;1.60;1.15;;;19.90;22.40;;;;;;10570890;28;20488;-80
2022/03/08 10:38:05;;;;;;;2.88;1.40;;;19.80;21.30;;;;;;10591971;28;20375;-79
2022/03/08 10:43:28;;;;;;;4.35;1.70;;;20.20;21.70;;;;;;10576617;28;20223;-82
2022/03/08 10:48:54;;;;;;;2.80;2.08;;;20.20;21.10;;;;;;10575777;28;20214;-81
2022/03/08 10:54:16;;;;;;;6.65;4.25;;;20.50;20.50;;;;;;10547079;28;20221;-78
2022/03/08 10:59:53;;;;;;;2.20;1.48;;;20.70;20.20;;;;;;10547725;28;20195;-80
2022/03/08 11:05:16;;;;;;;3.10;1.60;;;20.70;19.70;;;;;;10541195;28;20380;-80
2022/03/08 11:10:40;;;;;;;2.17;1.40;;;20.60;19.20;;;;;;10540771;28;20232;-80
2022/03/08 11:16:03;;;;;;;3.03;1.33;;;20.70;19.40;;;;;;10553720;28;20202;-79
2022/03/08 11:21:26;;;;;;;2.80;1.25;;;20.70;19.10;;;;;;10547991;28;20217;-80
2022/03/08 11:26:50;;;;;;;2.60;1.38;;;21.00;19.10;;;;;;10465458;28;20206;-80
2022/03/08 11:32:19;;;;;;;1.90;1.25;;;21.00;19.00;;;;;;10514402;28;20294;-80
2022/03/08 11:37:46;;;;;;;5.32;2.47;;;21.30;18.60;;;;;;10573990;28;20223;-79
2022/03/08 11:43:08;;;;;;;13.77;5.20;;;21.00;18.40;;;;;;10559836;28;20213;-80
2022/03/08 11:48:32;;;;;;;6.97;3.17;;;20.50;19.30;;;;;;10539312;28;20203;-79
2022/03/08 11:54:03;;;;;;;6.70;3.25;;;20.60;19.70;;;;;;10517500;28;20520;-79
2022/03/08 11:59:25;;;;;;;10.45;4.65;;;20.80;19.30;;;;;;10517365;28;20203;-80
2022/03/08 12:04:47;;;;;;;12.75;5.68;;;20.80;19.20;;;;;;10542621;28;20201;-79
2022/03/08 12:10:26;;;;;;;12.60;6.32;;;20.70;19.80;;;;;;10511376;28;20236;-80
2022/03/08 12:16:10;;;;;;;5.20;3.05;;;20.70;19.30;;;;;;10544003;28;20238;-79
2022/03/08 12:21:37;;;;;;;11.90;4.75;;;20.40;19.90;;;;;;10504329;28;20264;-79
2022/03/08 12:27:02;;;;;;;6.55;4.47;;;19.60;20.20;;;;;;10516479;28;20263;-79
2022/03/08 12:32:44;;;;;;;3.17;2.13;;;19.40;20.80;;;;;;10498163;28;20246;-79
2022/03/08 12:38:06;;;;;;;6.22;2.20;;;19.50;20.60;;;;;;10514967;28;20241;-78
2022/03/08 12:43:29;;;;;;;2.47;1.50;;;20.10;20.30;;;;;;10501781;28;20580;-77
2022/03/08 12:48:54;;;;;;;2.08;1.27;;;20.30;19.00;;;;;;10498162;28;20234;-79
2022/03/08 12:54:19;;;;;;;8.57;3.38;;;19.40;18.30;;;;;;10474353;28;20222;-83
2022/03/08 12:59:49;;;;;;;3.33;2.00;;;19.40;18.80;;;;;;10460210;28;20218;-79
2022/03/08 13:05:11;;;;;;;7.65;3.20;;;19.50;18.60;;;;;;10446277;28;20324;-78
2022/03/08 13:10:33;;;;;;;5.88;3.10;;;18.30;20.30;;;;;;10452242;28;20280;-80
2022/03/08 13:16:02;;;;;;;25.40;10.85;;;17.80;20.60;;;;;;10431570;28;20242;-77
2022/03/08 13:21:25;;;;;;;4.57;3.25;;;17.90;21.10;;;;;;10454752;28;20219;-76
2022/03/08 13:26:50;;;;;;;12.27;5.68;;;16.90;21.40;;;;;;10474521;28;20204;-78
2022/03/08 13:32:12;;;;;;;4.53;2.97;;;15.80;23.10;;;;;;10476314;28;20233;-78
2022/03/08 13:37:49;;;;;;;8.00;3.00;;;16.00;23.20;;;;;;10471889;28;20369;-78
2022/03/08 13:43:13;;;;;;;10.07;4.40;;;15.60;25.30;;;;;;10472038;28;20199;-78
2022/03/08 13:49:04;;;;;;;12.30;5.05;;;15.00;26.30;;;;;;10468899;28;20515;-79
2022/03/08 13:54:26;;;;;;;5.20;3.03;;;14.80;26.30;;;;;;10471975;28;20525;-79
2022/03/08 13:59:48;;;;;;;16.50;7.87;;;14.10;26.50;;;;;;10455523;28;20196;-78
2022/03/08 14:05:11;;;;;;;23.80;12.30;;;13.70;27.50;;;;;;10438791;28;20605;-79
2022/03/08 14:10:34;;;;;;;11.57;3.97;;;13.00;29.10;;;;;;10462230;28;20402;-78
2022/03/08 14:16:06;;;;;;;16.50;8.90;;;12.70;30.40;;;;;;10473202;28;20230;-79
2022/03/08 14:21:32;;;;;;;19.90;9.30;;;12.30;33.00;;;;;;10471567;28;20245;-78
2022/03/08 14:27:11;;;;;;;11.03;5.53;;;12.10;35.00;;;;;;10470721;28;20209;-78
2022/03/08 14:32:38;;;;;;;12.73;7.43;;;11.80;36.20;;;;;;10494030;28;20683;-77
2022/03/08 14:38:08;;;;;;;6.03;3.07;;;11.60;39.60;;;;;;10512974;28;20212;-78
2022/03/08 14:43:30;;;;;;;11.60;6.87;;;11.70;40.00;;;;;;10513647;28;20271;-83
2022/03/08 14:48:51;;;;;;;19.30;9.93;;;11.40;41.40;;;;;;10489791;28;20260;-79
2022/03/08 14:54:15;;;;;;;6.37;3.97;;;11.10;42.50;;;;;;10471985;28;20227;-80
2022/03/08 14:59:38;;;;;;;14.43;6.90;;;11.00;41.90;;;;;;10473202;28;20203;-78
2022/03/08 15:05:01;;;;;;;23.27;12.37;;;10.80;48.00;;;;;;10467516;28;20206;-78
2022/03/08 15:10:23;;;;;;;14.97;8.63;;;10.60;62.00;;;;;;10422446;28;20270;-78
2022/03/08 15:15:45;;;;;;;20.20;10.73;;;10.40;75.10;;;;;;10423166;28;20274;-77
2022/03/08 15:21:07;;;;;;;16.90;9.77;;;10.40;80.20;;;;;;10503313;28;20230;-78
2022/03/08 15:26:36;;;;;;;14.70;8.87;;;10.20;78.20;;;;;;10509629;28;20209;-78
2022/03/08 15:31:58;;;;;;;13.20;7.43;;;10.00;78.90;;;;;;10519204;28;20235;-78
2022/03/08 15:37:23;;;;;;;12.73;7.30;;;9.70;85.50;;;;;;10518758;28;20200;-78
2022/03/08 15:42:46;;;;;;;14.97;7.27;;;9.50;91.70;;;;;;10518386;28;20498;-77
2022/03/08 15:48:10;;;;;;;12.47;6.93;;;9.50;94.00;;;;;;10514626;28;20201;-77
2022/03/08 15:53:32;;;;;;;15.93;9.20;;;9.40;95.60;;;;;;10481162;28;20541;-79
2022/03/08 15:58:55;;;;;;;19.90;8.73;;;9.40;96.40;;;;;;10485436;28;20203;-78
2022/03/08 16:04:18;;;;;;;14.03;7.90;;;9.20;94.90;;;;;;10490049;28;20196;-78
2022/03/08 16:09:41;;;;;;;31.27;14.17;;;9.10;90.40;;;;;;10493313;28;20217;-78
2022/03/08 16:15:07;;;;;;;33.23;15.40;;;8.70;65.70;;;;;;10506529;28;20240;-78
2022/03/08 16:20:32;;;;;;;24.67;12.70;;;8.50;61.50;;;;;;10480842;28;20501;-79
2022/03/08 16:25:54;;;;;;;28.90;11.90;;;8.50;56.20;;;;;;10481161;28;20387;-78
2022/03/08 16:31:19;;;;;;;14.03;6.20;;;8.20;53.70;;;;;;10488892;28;20449;-77
2022/03/08 16:36:41;;;;;;;9.67;5.20;;;8.10;51.00;;;;;;10519479;28;20198;-79
2022/03/08 16:42:04;;;;;;;16.57;7.10;;;7.90;50.20;;;;;;10519436;28;20211;-78
2022/03/08 16:47:26;;;;;;;13.03;6.70;;;7.70;49.50;;;;;;10506258;28;20507;-78
2022/03/08 16:52:49;;;;;;;9.50;5.30;;;7.60;50.00;;;;;;10469065;28;20436;-78
2022/03/08 16:58:11;;;;;;;11.33;6.30;;;7.50;54.90;;;;;;10434992;28;20202;-79
2022/03/08 17:03:35;;;;;;;13.53;8.67;;;7.30;54.60;;;;;;10479379;28;20212;-78
2022/03/08 17:08:58;;;;;;;16.77;10.67;;;7.20;55.30;;;;;;10449205;28;20261;-78
2022/03/08 17:14:22;;;;;;;20.03;13.00;;;7.10;56.70;;;;;;10464321;28;20237;-79
2022/03/08 17:19:44;;;;;;;32.43;18.43;;;6.90;60.40;;;;;;10479758;28;20225;-78
2022/03/08 17:25:09;;;;;;;29.60;16.30;;;6.80;63.40;;;;;;10461439;28;20729;-78
2022/03/08 17:30:32;;;;;;;31.33;19.27;;;6.50;68.30;;;;;;10478092;28;20216;-78
2022/03/08 17:35:54;;;;;;;58.13;29.40;;;6.50;66.30;;;;;;10519058;28;20545;-78
2022/03/08 17:41:17;;;;;;;63.43;32.77;;;6.30;73.70;;;;;;10505409;28;20198;-78
2022/03/08 17:46:40;;;;;;;74.63;35.60;;;6.20;80.30;;;;;;10520172;28;20209;-78
2022/03/08 17:52:05;;;;;;;86.27;43.67;;;6.10;86.20;;;;;;10520190;28;20201;-78
2022/03/08 17:57:27;;;;;;;87.00;45.40;;;6.10;90.10;;;;;;10483479;28;20503;-79
2022/03/08 18:02:50;;;;;;;73.30;37.50;;;6.10;90.30;;;;;;10463155;28;20204;-78
2022/03/08 18:08:13;;;;;;;72.57;35.23;;;6.00;89.60;;;;;;10468739;28;20201;-78
2022/03/08 18:13:35;;;;;;;79.77;36.60;;;6.00;91.10;;;;;;10436686;28;20237;-78
2022/03/08 18:18:57;;;;;;;67.23;30.47;;;5.80;89.10;;;;;;10436631;28;20421;-78
2022/03/08 18:24:30;;;;;;;51.07;24.00;;;5.80;80.60;;;;;;10436238;28;20497;-78
2022/03/08 18:29:54;;;;;;;47.13;22.90;;;5.80;76.80;;;;;;10435225;28;20435;-78
2022/03/08 18:35:16;;;;;;;42.17;19.23;;;5.70;75.90;;;;;;10442271;28;20221;-79
2022/03/08 18:40:38;;;;;;;45.90;21.00;;;5.50;75.00;;;;;;10485999;28;20224;-78
2022/03/08 18:46:03;;;;;;;41.50;16.80;;;5.50;75.70;;;;;;10484290;28;20266;-78
2022/03/08 18:51:25;;;;;;;33.57;13.00;;;5.40;73.30;;;;;;10485412;28;20354;-78
2022/03/08 18:56:50;;;;;;;23.40;11.60;;;5.30;71.60;;;;;;10484696;28;20223;-78
2022/03/08 19:02:13;;;;;;;16.80;8.80;;;5.20;69.40;;;;;;10483938;28;20218;-78
2022/03/08 19:07:37;;;;;;;15.93;8.70;;;5.10;69.20;;;;;;10450526;28;20201;-77
2022/03/08 19:12:59;;;;;;;19.27;9.50;;;5.10;69.90;;;;;;10456190;28;20236;-78
2022/03/08 19:18:21;;;;;;;23.70;10.97;;;5.00;69.60;;;;;;10484172;28;20509;-79
2022/03/08 19:23:44;;;;;;;31.50;15.40;;;4.80;72.30;;;;;;10483198;28;20220;-78
2022/03/08 19:29:06;;;;;;;60.57;26.70;;;4.60;74.50;;;;;;10468786;28;20199;-78
2022/03/08 19:34:28;;;;;;;67.90;28.40;;;4.40;79.00;;;;;;10519973;28;20226;-77
2022/03/08 19:39:50;;;;;;;56.27;25.77;;;4.30;83.30;;;;;;10523973;28;20210;-78
2022/03/08 19:45:12;;;;;;;62.53;28.67;;;4.20;86.00;;;;;;10523567;28;20204;-78
2022/03/08 19:50:34;;;;;;;42.43;21.77;;;4.30;86.50;;;;;;10464906;28;20392;-78
2022/03/08 19:55:57;;;;;;;36.33;16.47;;;4.10;90.70;;;;;;10481856;28;20268;-79
2022/03/08 20:01:22;;;;;;;26.77;12.43;;;4.10;93.10;;;;;;10481872;28;20196;-78
2022/03/08 20:06:44;;;;;;;40.17;14.30;;;4.00;95.50;;;;;;10456697;28;20200;-77
2022/03/08 20:12:06;;;;;;;33.97;12.83;;;4.00;96.30;;;;;;10443836;28;20270;-78
2022/03/08 20:17:29;;;;;;;33.77;11.70;;;3.90;97.20;;;;;;10439936;28;20222;-77
2022/03/08 20:22:52;;;;;;;28.00;12.97;;;3.80;97.90;;;;;;10440642;28;20278;-77
2022/03/08 20:28:15;;;;;;;35.43;14.30;;;3.70;99.50;;;;;;10480558;28;20222;-78
2022/03/08 20:33:37;;;;;;;31.60;15.23;;;3.50;99.90;;;;;;10496288;28;20226;-77
2022/03/08 20:39:01;;;;;;;28.47;15.57;;;3.40;99.90;;;;;;10522746;28;20194;-78
2022/03/08 20:44:23;;;;;;;33.40;17.93;;;3.40;99.90;;;;;;10522583;28;20194;-77
2022/03/08 20:49:45;;;;;;;42.87;22.50;;;3.30;99.90;;;;;;10480272;28;20201;-77
2022/03/08 20:55:08;;;;;;;38.57;21.07;;;3.20;99.90;;;;;;10479457;28;20276;-78
2022/03/08 21:00:30;;;;;;;34.80;17.37;;;3.10;99.90;;;;;;10480177;28;20632;-78
2022/03/08 21:05:52;;;;;;;31.80;16.60;;;3.00;99.90;;;;;;10460364;28;20207;-77
2022/03/08 21:11:14;;;;;;;34.43;17.13;;;2.90;99.90;;;;;;10442550;28;20284;-78
2022/03/08 21:16:38;;;;;;;31.43;15.83;;;3.00;99.90;;;;;;10442590;28;20218;-78
2022/03/08 21:22:01;;;;;;;39.77;18.13;;;3.00;99.90;;;;;;10478208;28;20195;-78
2022/03/08 21:27:24;;;;;;;31.70;17.50;;;2.90;99.90;;;;;;10478650;28;20198;-78
2022/03/08 21:32:48;;;;;;;33.13;17.00;;;2.80;99.90;;;;;;10501176;28;20213;-78
2022/03/08 21:38:11;;;;;;;40.27;19.03;;;2.80;99.90;;;;;;10520427;28;20202;-78
2022/03/08 21:43:39;;;;;;;38.97;21.30;;;2.70;99.90;;;;;;10519128;28;20393;-78
2022/03/08 21:49:03;;;;;;;37.30;17.53;;;2.60;99.90;;;;;;10494537;28;20263;-78
2022/03/08 21:54:27;;;;;;;38.80;19.73;;;2.50;99.90;;;;;;10478583;28;20222;-78
2022/03/08 21:59:49;;;;;;;45.13;21.00;;;2.50;99.90;;;;;;10477333;28;20218;-78
2022/03/08 22:05:12;;;;;;;45.13;20.63;;;2.40;99.90;;;;;;10464067;28;20545;-78
2022/03/08 22:10:35;;;;;;;31.93;17.13;;;2.30;99.90;;;;;;10439497;28;20282;-78
2022/03/08 22:15:57;;;;;;;35.67;18.67;;;2.20;99.90;;;;;;10451284;28;20555;-77
2022/03/08 22:21:19;;;;;;;32.87;17.37;;;2.20;99.90;;;;;;10477322;28;20426;-78
2022/03/08 22:26:42;;;;;;;34.83;18.67;;;2.30;99.90;;;;;;10449025;28;20260;-77
2022/03/08 22:32:04;;;;;;;42.73;22.63;;;2.30;99.90;;;;;;10494776;28;20206;-78
2022/03/08 22:37:26;;;;;;;35.67;18.43;;;2.20;99.90;;;;;;10517945;28;20206;-78
2022/03/08 22:42:48;;;;;;;37.13;17.80;;;2.20;99.90;;;;;;10519562;28;20277;-77
2022/03/08 22:48:12;;;;;;;32.97;17.33;;;2.10;99.90;;;;;;10498754;28;20218;-78
2022/03/08 22:53:34;;;;;;;35.93;17.30;;;2.00;99.90;;;;;;10476626;28;20245;-77
2022/03/08 22:58:57;;;;;;;49.87;22.30;;;1.90;99.90;;;;;;10477057;28;20209;-77
2022/03/08 23:04:21;;;;;;;44.13;21.43;;;1.90;99.90;;;;;;10470483;28;20202;-78
2022/03/08 23:09:43;;;;;;;45.70;22.97;;;1.80;99.90;;;;;;10424824;28;20551;-77
2022/03/08 23:15:06;;;;;;;56.53;27.63;;;1.70;99.90;;;;;;10444549;28;20238;-78
2022/03/08 23:20:27;;;;;;;44.40;24.77;;;1.70;99.90;;;;;;10479646;28;20195;-78
2022/03/08 23:25:51;;;;;;;45.47;24.43;;;1.50;99.90;;;;;;10484057;28;20211;-78
2022/03/08 23:31:13;;;;;;;37.03;19.80;;;1.50;99.90;;;;;;10494391;28;20201;-78
2022/03/08 23:36:35;;;;;;;32.90;17.77;;;1.40;99.90;;;;;;10501021;28;20413;-77
2022/03/08 23:41:57;;;;;;;26.30;14.80;;;1.50;99.90;;;;;;10469895;28;20198;-78
2022/03/08 23:47:20;;;;;;;23.97;13.70;;;1.40;99.90;;;;;;10483119;28;20452;-78
2022/03/08 23:52:42;;;;;;;27.00;14.57;;;1.40;99.90;;;;;;10483413;28;20225;-78
2022/03/08 23:58:04;;;;;;;24.27;14.23;;;1.40;99.90;;;;;;10482190;28;20198;-78
